createdAt,value
2023-01-29T00:01:52.640Z,102243.00
2023-01-29T00:04:19.340Z,102236.00
2023-01-29T00:06:46.132Z,102240.00
2023-01-29T00:09:13.780Z,102255.00
2023-01-29T00:11:41.318Z,102243.00
2023-01-29T00:14:08.138Z,102256.00
2023-01-29T00:16:34.689Z,102256.00
2023-01-29T00:19:02.520Z,102242.00
2023-01-29T00:21:31.139Z,102231.00
2023-01-29T00:23:58.248Z,102218.00
2023-01-29T00:26:25.500Z,102235.00
2023-01-29T00:28:52.433Z,102224.00
2023-01-29T00:31:22.111Z,102217.00
2023-01-29T00:33:49.761Z,102229.00
2023-01-29T00:36:18.320Z,102231.00
2023-01-29T00:38:54.928Z,102221.00
2023-01-29T00:41:40.975Z,102203.00
2023-01-29T00:44:26.557Z,102206.00
2023-01-29T00:46:53.861Z,102203.00
2023-01-29T00:49:20.439Z,102212.00
2023-01-29T00:52:09.833Z,102203.00
2023-01-29T00:54:36.876Z,102203.00
2023-01-29T00:57:04.150Z,102207.00
2023-01-29T00:59:32.143Z,102199.00
2023-01-29T01:02:17.674Z,102217.00
2023-01-29T01:04:44.372Z,102216.00
2023-01-29T01:09:55.396Z,102225.00
2023-01-29T01:12:22.125Z,102226.00
2023-01-29T01:14:49.130Z,102227.00
2023-01-29T01:17:16.116Z,102227.00
2023-01-29T01:19:42.723Z,102213.00
2023-01-29T01:22:09.782Z,102223.00
2023-01-29T01:24:36.788Z,102227.00
2023-01-29T01:27:03.351Z,102206.00
2023-01-29T01:29:30.076Z,102200.00
2023-01-29T01:31:56.729Z,102204.00
2023-01-29T01:34:23.676Z,102207.00
2023-01-29T01:36:50.233Z,102200.00
2023-01-29T01:39:16.884Z,102209.00
2023-01-29T01:41:43.524Z,102228.00
2023-01-29T01:44:56.480Z,102213.00
2023-01-29T01:47:45.857Z,102218.00
2023-01-29T01:50:19.131Z,102204.00
2023-01-29T01:52:51.969Z,102202.00
2023-01-29T01:55:22.025Z,102192.00
2023-01-29T01:57:53.831Z,102181.00
2023-01-29T02:00:24.944Z,102195.00
2023-01-29T02:03:10.178Z,102183.00
2023-01-29T02:05:57.770Z,102180.00
2023-01-29T02:09:25.267Z,102178.00
2023-01-29T02:11:51.932Z,102174.00
2023-01-29T02:14:18.950Z,102187.00
2023-01-29T02:16:45.657Z,102171.00
2023-01-29T02:19:39.835Z,102174.00
2023-01-29T02:22:30.818Z,102164.00
2023-01-29T02:25:09.933Z,102170.00
2023-01-29T02:28:16.211Z,102181.00
2023-01-29T02:31:11.583Z,102176.00
2023-01-29T02:33:51.561Z,102181.00
2023-01-29T02:36:37.107Z,102168.00
2023-01-29T02:39:28.682Z,102163.00
2023-01-29T02:42:17.110Z,102158.00
2023-01-29T02:44:54.321Z,102157.00
2023-01-29T02:48:00.718Z,102166.00
2023-01-29T02:50:47.756Z,102168.00
2023-01-29T02:53:21.869Z,102169.00
2023-01-29T02:56:07.733Z,102170.00
2023-01-29T02:58:54.013Z,102157.00
2023-01-29T03:01:30.492Z,102159.00
2023-01-29T03:04:01.638Z,102160.00
2023-01-29T03:06:34.715Z,102173.00
2023-01-29T03:09:06.955Z,102164.00
2023-01-29T03:11:42.946Z,102161.00
2023-01-29T03:14:16.981Z,102168.00
2023-01-29T03:16:52.227Z,102162.00
2023-01-29T03:19:24.157Z,102163.00
2023-01-29T03:21:59.692Z,102159.00
2023-01-29T03:24:54.144Z,102153.00
2023-01-29T03:27:43.608Z,102166.00
2023-01-29T03:30:31.792Z,102142.00
2023-01-29T03:33:02.935Z,102151.00
2023-01-29T03:35:39.405Z,102150.00
2023-01-29T03:38:12.498Z,102125.00
2023-01-29T03:40:46.203Z,102114.00
2023-01-29T03:43:52.256Z,102116.00
2023-01-29T03:46:29.899Z,102109.00
2023-01-29T03:49:01.099Z,102101.00
2023-01-29T03:52:23.515Z,102104.00
2023-01-29T03:54:57.965Z,102108.00
2023-01-29T03:57:35.068Z,102093.00
2023-01-29T04:00:29.182Z,102076.00
2023-01-29T04:03:21.770Z,102079.00
2023-01-29T04:05:53.232Z,102076.00
2023-01-29T04:08:27.531Z,102072.00
2023-01-29T04:10:59.645Z,102076.00
2023-01-29T04:13:27.259Z,102073.00
2023-01-29T04:15:58.222Z,102066.00
2023-01-29T04:18:25.877Z,102072.00
2023-01-29T04:20:52.822Z,102054.00
2023-01-29T04:23:24.962Z,102057.00
2023-01-29T04:26:07.484Z,102056.00
2023-01-29T04:28:56.608Z,102043.00
2023-01-29T04:31:28.657Z,102033.00
2023-01-29T04:34:16.332Z,102044.00
2023-01-29T04:36:56.674Z,102034.00
2023-01-29T04:39:31.612Z,102046.00
2023-01-29T04:42:36.617Z,102043.00
2023-01-29T04:45:21.743Z,102050.00
2023-01-29T04:48:14.845Z,102046.00
2023-01-29T04:50:52.369Z,102049.00
2023-01-29T04:53:29.613Z,102047.00
2023-01-29T04:56:05.163Z,102046.00
2023-01-29T04:58:45.356Z,102068.00
2023-01-29T05:01:16.750Z,102063.00
2023-01-29T05:03:47.483Z,102063.00
2023-01-29T05:06:16.402Z,102059.00
2023-01-29T05:08:44.987Z,102058.00
2023-01-29T05:11:11.962Z,102061.00
2023-01-29T05:13:42.360Z,102059.00
2023-01-29T05:16:20.901Z,102051.00
2023-01-29T05:18:48.121Z,102040.00
2023-01-29T05:21:14.988Z,102049.00
2023-01-29T05:23:53.575Z,102055.00
2023-01-29T05:26:40.382Z,102059.00
2023-01-29T05:29:07.271Z,102054.00
2023-01-29T05:31:34.047Z,102036.00
2023-01-29T05:34:00.841Z,102057.00
2023-01-29T05:36:27.628Z,102051.00
2023-01-29T05:38:54.447Z,102056.00
2023-01-29T05:41:21.273Z,102059.00
2023-01-29T05:43:48.004Z,102054.00
2023-01-29T05:46:14.598Z,102065.00
2023-01-29T05:48:41.418Z,102053.00
2023-01-29T05:51:08.172Z,102049.00
2023-01-29T05:53:34.937Z,102072.00
2023-01-29T05:56:02.805Z,102082.00
2023-01-29T05:58:33.339Z,102059.00
2023-01-29T06:01:15.792Z,102073.00
2023-01-29T06:03:42.760Z,102070.00
2023-01-29T06:06:09.595Z,102071.00
2023-01-29T06:08:36.588Z,102066.00
2023-01-29T06:11:03.561Z,102063.00
2023-01-29T06:13:30.911Z,102062.00
2023-01-29T06:15:57.531Z,102075.00
2023-01-29T06:18:24.462Z,102072.00
2023-01-29T06:20:51.130Z,102054.00
2023-01-29T06:23:17.853Z,102041.00
2023-01-29T06:25:44.537Z,102055.00
2023-01-29T06:28:11.139Z,102067.00
2023-01-29T06:30:37.809Z,102053.00
2023-01-29T06:33:04.601Z,102051.00
2023-01-29T06:35:31.298Z,102049.00
2023-01-29T06:37:57.825Z,102056.00
2023-01-29T06:40:24.406Z,102053.00
2023-01-29T06:42:51.025Z,102067.00
2023-01-29T06:45:17.784Z,102058.00
2023-01-29T06:47:44.488Z,102080.00
2023-01-29T06:50:11.701Z,102065.00
2023-01-29T06:52:38.410Z,102071.00
2023-01-29T06:55:05.531Z,102058.00
2023-01-29T06:57:32.212Z,102065.00
2023-01-29T06:59:59.683Z,102061.00
2023-01-29T07:02:26.451Z,102063.00
2023-01-29T07:04:53.154Z,102052.00
2023-01-29T07:07:20.023Z,102067.00
2023-01-29T07:09:47.708Z,102050.00
2023-01-29T07:12:14.538Z,102056.00
2023-01-29T07:14:41.261Z,102047.00
2023-01-29T07:17:07.888Z,102047.00
2023-01-29T07:19:34.479Z,102068.00
2023-01-29T07:22:03.404Z,102062.00
2023-01-29T07:24:30.935Z,102071.00
2023-01-29T07:26:57.754Z,102069.00
2023-01-29T07:29:24.491Z,102077.00
2023-01-29T07:31:51.292Z,102073.00
2023-01-29T07:34:18.094Z,102077.00
2023-01-29T07:36:44.796Z,102062.00
2023-01-29T07:39:11.628Z,102055.00
2023-01-29T07:41:38.250Z,102045.00
2023-01-29T07:44:05.311Z,102057.00
2023-01-29T07:46:32.489Z,102029.00
2023-01-29T07:48:59.921Z,102022.00
2023-01-29T07:51:26.493Z,102021.00
2023-01-29T07:53:53.648Z,102031.00
2023-01-29T07:56:20.496Z,102041.00
2023-01-29T07:58:47.335Z,102046.00
2023-01-29T08:01:14.219Z,102016.00
2023-01-29T08:03:41.238Z,102022.00
2023-01-29T08:06:08.121Z,102023.00
2023-01-29T08:08:35.059Z,102002.00
2023-01-29T08:11:03.137Z,102016.00
2023-01-29T08:13:30.336Z,102008.00
2023-01-29T08:16:02.303Z,102020.00
2023-01-29T08:18:29.468Z,102015.00
2023-01-29T08:21:01.236Z,102028.00
2023-01-29T08:23:28.041Z,102019.00
2023-01-29T08:25:54.983Z,102029.00
2023-01-29T08:28:22.054Z,102010.00
2023-01-29T08:30:48.785Z,102013.00
2023-01-29T08:33:17.530Z,102014.00
2023-01-29T08:35:50.023Z,102025.00
2023-01-29T08:38:17.187Z,102022.00
2023-01-29T08:40:44.326Z,102012.00
2023-01-29T08:43:12.391Z,102011.00
2023-01-29T08:45:44.275Z,102020.00
2023-01-29T08:48:11.656Z,102013.00
2023-01-29T08:50:38.464Z,102015.00
2023-01-29T08:53:09.542Z,102022.00
2023-01-29T08:55:38.829Z,102011.00
2023-01-29T08:58:06.766Z,102002.00
2023-01-29T09:00:35.062Z,102006.00
2023-01-29T09:03:01.783Z,102009.00
2023-01-29T09:05:28.892Z,101992.00
2023-01-29T09:07:58.962Z,101996.00
2023-01-29T09:10:25.875Z,101999.00
2023-01-29T09:12:52.785Z,102006.00
2023-01-29T09:15:19.969Z,102006.00
2023-01-29T09:17:47.494Z,101994.00
2023-01-29T09:20:14.269Z,102003.00
2023-01-29T09:22:41.663Z,101978.00
2023-01-29T09:25:09.057Z,101991.00
2023-01-29T09:27:35.826Z,101975.00
2023-01-29T09:30:02.821Z,101984.00
2023-01-29T09:33:04.902Z,101983.00
2023-01-29T09:35:18.429Z,101992.00
2023-01-29T09:37:49.048Z,101988.00
2023-01-29T09:40:37.571Z,101990.00
2023-01-29T09:43:14.106Z,101982.00
2023-01-29T09:45:52.254Z,101965.00
2023-01-29T09:48:22.203Z,101962.00
2023-01-29T09:50:54.660Z,101966.00
2023-01-29T09:53:43.365Z,101971.00
2023-01-29T09:56:38.774Z,101954.00
2023-01-29T09:59:09.438Z,101965.00
2023-01-29T10:01:57.592Z,101958.00
2023-01-29T10:04:52.860Z,101953.00
2023-01-29T10:11:55.216Z,101940.00
2023-01-29T10:14:39.146Z,101945.00
2023-01-29T10:17:24.515Z,101946.00
2023-01-29T10:20:18.115Z,101952.00
2023-01-29T10:22:47.822Z,101945.00
2023-01-29T10:25:19.831Z,101952.00
2023-01-29T10:27:54.671Z,101949.00
2023-01-29T10:30:27.276Z,101942.00
2023-01-29T10:32:55.595Z,101954.00
2023-01-29T10:35:44.259Z,101943.00
2023-01-29T10:38:29.529Z,101930.00
2023-01-29T10:41:13.147Z,101925.00
2023-01-29T10:43:53.534Z,101911.00
2023-01-29T10:46:38.239Z,101921.00
2023-01-29T10:49:17.913Z,101898.00
2023-01-29T10:51:56.922Z,101907.00
2023-01-29T10:54:42.082Z,101898.00
2023-01-29T10:57:11.765Z,101883.00
2023-01-29T11:00:15.505Z,101879.00
2023-01-29T11:02:48.853Z,101876.00
2023-01-29T11:05:30.645Z,101871.00
2023-01-29T11:08:08.837Z,101864.00
2023-01-29T11:10:39.163Z,101852.00
2023-01-29T11:13:06.401Z,101847.00
2023-01-29T11:15:35.870Z,101859.00
2023-01-29T11:18:15.546Z,101836.00
2023-01-29T11:20:44.280Z,101841.00
2023-01-29T11:23:27.320Z,101832.00
2023-01-29T11:25:55.871Z,101834.00
2023-01-29T11:28:42.895Z,101840.00
2023-01-29T11:31:22.767Z,101835.00
2023-01-29T11:33:52.725Z,101836.00
2023-01-29T11:36:33.445Z,101831.00
2023-01-29T11:39:20.785Z,101815.00
2023-01-29T11:41:59.365Z,101824.00
2023-01-29T11:44:33.632Z,101813.00
2023-01-29T11:47:15.350Z,101811.00
2023-01-29T11:49:56.666Z,101809.00
2023-01-29T11:52:35.740Z,101800.00
2023-01-29T11:55:07.609Z,101808.00
2023-01-29T11:57:41.345Z,101805.00
2023-01-29T12:00:22.645Z,101794.00
2023-01-29T12:02:58.143Z,101804.00
2023-01-29T12:05:27.138Z,101803.00
2023-01-29T12:07:56.864Z,101794.00
2023-01-29T12:10:38.198Z,101788.00
2023-01-29T12:13:07.728Z,101802.00
2023-01-29T12:15:34.359Z,101799.00
2023-01-29T12:18:33.252Z,101793.00
2023-01-29T12:21:13.681Z,101778.00
2023-01-29T12:23:58.065Z,101797.00
2023-01-29T12:26:29.337Z,101790.00
2023-01-29T12:29:15.240Z,101782.00
2023-01-29T12:32:03.532Z,101780.00
2023-01-29T12:34:44.300Z,101777.00
2023-01-29T12:37:46.416Z,101766.00
2023-01-29T12:40:21.371Z,101753.00
2023-01-29T12:43:08.145Z,101742.00
2023-01-29T12:46:08.906Z,101757.00
2023-01-29T12:48:47.001Z,101762.00
2023-01-29T12:51:16.513Z,101741.00
2023-01-29T12:54:00.684Z,101756.00
2023-01-29T12:56:34.432Z,101768.00
2023-01-29T12:59:10.040Z,101761.00
2023-01-29T13:02:04.456Z,101748.00
2023-01-29T13:04:44.523Z,101757.00
2023-01-29T13:07:21.598Z,101756.00
2023-01-29T13:09:53.340Z,101744.00
2023-01-29T13:12:22.934Z,101744.00
2023-01-29T13:14:56.375Z,101754.00
2023-01-29T13:17:53.618Z,101738.00
2023-01-29T13:20:29.138Z,101730.00
2023-01-29T13:23:02.016Z,101717.00
2023-01-29T13:25:29.712Z,101732.00
2023-01-29T13:27:56.430Z,101736.00
2023-01-29T13:30:35.875Z,101719.00
2023-01-29T13:33:16.585Z,101733.00
2023-01-29T13:35:47.157Z,101719.00
2023-01-29T13:38:29.692Z,101723.00
2023-01-29T13:41:05.345Z,101730.00
2023-01-29T13:43:44.657Z,101701.00
2023-01-29T13:46:21.574Z,101727.00
2023-01-29T13:48:51.213Z,101729.00
2023-01-29T13:51:22.587Z,101718.00
2023-01-29T13:53:54.248Z,101725.00
2023-01-29T13:56:36.262Z,101717.00
2023-01-29T13:59:05.594Z,101710.00
2023-01-29T14:01:50.762Z,101706.00
2023-01-29T14:04:25.677Z,101697.00
2023-01-29T14:06:58.232Z,101692.00
2023-01-29T14:09:31.964Z,101693.00
2023-01-29T14:11:59.504Z,101686.00
2023-01-29T14:14:48.141Z,101690.00
2023-01-29T14:17:17.584Z,101684.00
2023-01-29T14:20:16.126Z,101676.00
2023-01-29T14:22:44.664Z,101688.00
2023-01-29T14:25:21.403Z,101695.00
2023-01-29T14:27:50.957Z,101681.00
2023-01-29T14:30:19.171Z,101702.00
2023-01-29T14:32:50.411Z,101689.00
2023-01-29T14:35:25.111Z,101681.00
2023-01-29T14:37:56.788Z,101673.00
2023-01-29T14:40:26.198Z,101679.00
2023-01-29T14:43:03.409Z,101662.00
2023-01-29T14:45:33.250Z,101680.00
2023-01-29T14:48:12.562Z,101672.00
2023-01-29T14:50:42.945Z,101680.00
2023-01-29T14:53:45.292Z,101672.00
2023-01-29T14:56:26.731Z,101663.00
2023-01-29T14:59:22.444Z,101667.00
2023-01-29T15:01:58.054Z,101662.00
2023-01-29T15:04:32.996Z,101666.00
2023-01-29T15:07:23.594Z,101672.00
2023-01-29T15:10:22.303Z,101666.00
2023-01-29T15:13:14.053Z,101656.00
2023-01-29T15:15:47.569Z,101662.00
2023-01-29T15:18:26.816Z,101655.00
2023-01-29T15:21:08.029Z,101656.00
2023-01-29T15:23:34.788Z,101640.00
2023-01-29T15:26:20.521Z,101648.00
2023-01-29T15:29:03.627Z,101624.00
2023-01-29T15:31:32.622Z,101631.00
2023-01-29T15:34:03.457Z,101629.00
2023-01-29T15:36:31.686Z,101621.00
2023-01-29T15:39:10.968Z,101603.00
2023-01-29T15:41:37.762Z,101624.00
2023-01-29T15:44:04.636Z,101632.00
2023-01-29T15:46:45.991Z,101604.00
2023-01-29T15:49:45.218Z,101613.00
2023-01-29T15:52:35.547Z,101606.00
2023-01-29T15:55:07.471Z,101612.00
2023-01-29T15:57:37.908Z,101597.00
2023-01-29T16:00:05.719Z,101600.00
2023-01-29T16:02:41.917Z,101588.00
2023-01-29T16:05:21.013Z,101598.00
2023-01-29T16:07:49.758Z,101591.00
2023-01-29T16:10:22.214Z,101597.00
2023-01-29T16:12:51.819Z,101584.00
2023-01-29T16:15:33.673Z,101594.00
2023-01-29T16:18:02.702Z,101596.00
2023-01-29T16:20:41.532Z,101584.00
2023-01-29T16:23:16.367Z,101592.00
2023-01-29T16:25:43.090Z,101576.00
2023-01-29T16:28:11.873Z,101589.00
2023-01-29T16:30:40.358Z,101585.00
2023-01-29T16:33:14.801Z,101569.00
2023-01-29T16:35:41.778Z,101586.00
2023-01-29T16:38:25.136Z,101575.00
2023-01-29T16:41:13.793Z,101576.00
2023-01-29T16:43:49.317Z,101579.00
2023-01-29T16:46:26.425Z,101581.00
2023-01-29T16:48:53.968Z,101564.00
2023-01-29T16:51:30.890Z,101574.00
2023-01-29T16:54:00.126Z,101573.00
2023-01-29T16:56:33.491Z,101580.00
2023-01-29T16:59:13.005Z,101555.00
2023-01-29T17:01:39.802Z,101552.00
2023-01-29T17:04:13.833Z,101566.00
2023-01-29T17:06:44.762Z,101553.00
2023-01-29T17:09:26.327Z,101549.00
2023-01-29T17:11:56.792Z,101557.00
2023-01-29T17:14:25.719Z,101543.00
2023-01-29T17:17:16.132Z,101541.00
2023-01-29T17:19:43.115Z,101535.00
2023-01-29T17:22:14.950Z,101522.00
2023-01-29T17:24:46.613Z,101522.00
2023-01-29T17:27:20.237Z,101530.00
2023-01-29T17:29:47.800Z,101526.00
2023-01-29T17:32:18.881Z,101530.00
2023-01-29T17:34:51.999Z,101522.00
2023-01-29T17:37:23.455Z,101503.00
2023-01-29T17:39:52.058Z,101508.00
2023-01-29T17:42:21.786Z,101497.00
2023-01-29T17:44:49.264Z,101489.00
2023-01-29T17:47:16.053Z,101494.00
2023-01-29T17:49:47.884Z,101488.00
2023-01-29T17:52:15.711Z,101483.00
2023-01-29T17:54:43.234Z,101479.00
2023-01-29T17:57:18.883Z,101463.00
2023-01-29T17:59:45.554Z,101457.00
2023-01-29T18:02:28.936Z,101453.00
2023-01-29T18:05:08.118Z,101458.00
2023-01-29T18:07:37.703Z,101455.00
2023-01-29T18:10:05.718Z,101436.00
2023-01-29T18:12:32.536Z,101458.00
2023-01-29T18:14:59.735Z,101445.00
2023-01-29T18:17:26.736Z,101457.00
2023-01-29T18:19:53.427Z,101461.00
2023-01-29T18:22:20.464Z,101441.00
2023-01-29T18:24:48.208Z,101446.00
2023-01-29T18:27:17.350Z,101434.00
2023-01-29T18:29:44.116Z,101438.00
2023-01-29T18:32:15.766Z,101443.00
2023-01-29T18:34:42.765Z,101444.00
2023-01-29T18:37:13.039Z,101436.00
2023-01-29T18:39:40.037Z,101437.00
2023-01-29T18:42:06.643Z,101425.00
2023-01-29T18:44:33.742Z,101428.00
2023-01-29T18:47:00.503Z,101429.00
2023-01-29T18:49:30.729Z,101421.00
2023-01-29T18:51:57.655Z,101430.00
2023-01-29T18:54:24.765Z,101424.00
2023-01-29T18:57:09.295Z,101429.00
2023-01-29T19:02:27.637Z,101406.00
2023-01-29T19:11:41.994Z,101416.00
2023-01-29T19:14:29.095Z,101392.00
2023-01-29T19:17:09.414Z,101387.00
2023-01-29T19:19:36.572Z,101393.00
2023-01-29T19:22:05.456Z,101391.00
2023-01-29T19:24:42.688Z,101357.00
2023-01-29T19:27:12.591Z,101370.00
2023-01-29T19:29:44.401Z,101362.00
2023-01-29T19:32:22.072Z,101367.00
2023-01-29T19:34:51.744Z,101356.00
2023-01-29T19:37:18.523Z,101341.00
2023-01-29T19:42:26.276Z,101342.00
2023-01-29T19:44:53.849Z,101338.00
2023-01-29T19:50:10.142Z,101337.00
2023-01-29T19:52:52.407Z,101346.00
2023-01-29T19:55:21.108Z,101321.00
2023-01-29T19:57:59.794Z,101334.00
2023-01-29T20:00:40.254Z,101334.00
2023-01-29T20:03:07.407Z,101323.00
2023-01-29T20:05:38.460Z,101320.00
2023-01-29T20:08:05.839Z,101304.00
2023-01-29T20:10:37.649Z,101297.00
2023-01-29T20:13:09.247Z,101298.00
2023-01-29T20:15:36.232Z,101297.00
2023-01-29T20:18:09.130Z,101272.00
2023-01-29T20:20:45.321Z,101288.00
2023-01-29T20:23:25.042Z,101265.00
2023-01-29T20:26:03.653Z,101264.00
2023-01-29T20:28:36.289Z,101267.00
2023-01-29T20:31:05.941Z,101265.00
2023-01-29T20:33:37.557Z,101270.00
2023-01-29T20:36:07.909Z,101258.00
2023-01-29T20:38:40.660Z,101249.00
2023-01-29T20:41:27.501Z,101246.00
2023-01-29T20:43:57.057Z,101242.00
2023-01-29T20:46:24.104Z,101228.00
2023-01-29T20:51:42.149Z,101226.00
2023-01-29T20:54:09.433Z,101217.00
2023-01-29T20:56:39.296Z,101219.00
2023-01-29T20:59:13.172Z,101221.00
2023-01-29T21:01:44.400Z,101221.00
2023-01-29T21:04:11.828Z,101199.00
2023-01-29T21:06:38.584Z,101194.00
2023-01-29T21:09:05.476Z,101180.00
2023-01-29T21:11:33.900Z,101187.00
2023-01-29T21:14:08.027Z,101185.00
2023-01-29T21:16:37.636Z,101178.00
2023-01-29T21:19:17.316Z,101163.00
2023-01-29T21:22:05.103Z,101163.00
2023-01-29T21:24:37.838Z,101136.00
2023-01-29T21:27:09.393Z,101155.00
2023-01-29T21:29:39.237Z,101155.00
2023-01-29T21:32:08.457Z,101158.00
2023-01-29T21:37:17.586Z,101128.00
2023-01-29T21:39:44.306Z,101126.00
2023-01-29T21:42:29.768Z,101119.00
2023-01-29T21:44:59.830Z,101120.00
2023-01-29T21:47:27.114Z,101125.00
2023-01-29T21:49:54.438Z,101119.00
2023-01-29T21:52:24.236Z,101107.00
2023-01-29T21:54:51.582Z,101108.00
2023-01-29T21:57:21.407Z,101087.00
2023-01-29T21:59:53.167Z,101092.00
2023-01-29T22:02:21.856Z,101099.00
2023-01-29T22:04:53.295Z,101100.00
2023-01-29T22:07:20.358Z,101090.00
2023-01-29T22:09:47.832Z,101094.00
2023-01-29T22:12:16.603Z,101105.00
2023-01-29T22:14:44.145Z,101081.00
2023-01-29T22:17:11.433Z,101079.00
2023-01-29T22:19:39.372Z,101082.00
2023-01-29T22:22:08.369Z,101068.00
2023-01-29T22:24:43.012Z,101053.00
2023-01-29T22:27:13.053Z,101050.00
2023-01-29T22:29:40.777Z,101031.00
2023-01-29T22:32:08.457Z,101043.00
2023-01-29T22:34:35.513Z,101032.00
2023-01-29T22:37:02.759Z,101020.00
2023-01-29T22:39:29.516Z,101024.00
2023-01-29T22:41:56.850Z,101008.00
2023-01-29T22:44:23.962Z,101001.00
2023-01-29T22:46:52.121Z,101016.00
2023-01-29T22:49:27.896Z,101004.00
2023-01-29T22:52:12.808Z,100995.00
2023-01-29T22:54:42.353Z,100986.00
2023-01-29T22:57:14.106Z,100971.00
2023-01-29T22:59:44.760Z,100980.00
2023-01-29T23:02:12.354Z,100981.00
2023-01-29T23:04:40.615Z,100966.00
2023-01-29T23:07:07.324Z,100957.00
2023-01-29T23:09:34.441Z,100965.00
2023-01-29T23:12:04.467Z,100960.00
2023-01-29T23:14:31.508Z,100962.00
2023-01-29T23:16:58.237Z,100945.00
2023-01-29T23:22:11.315Z,100931.00
2023-01-29T23:24:38.278Z,100907.00
2023-01-29T23:27:14.919Z,100932.00
2023-01-29T23:29:46.107Z,100926.00
2023-01-29T23:32:17.904Z,100915.00
2023-01-29T23:34:44.461Z,100909.00
2023-01-29T23:37:10.992Z,100907.00
2023-01-29T23:39:37.907Z,100905.00
2023-01-29T23:42:04.544Z,100910.00
2023-01-29T23:44:33.775Z,100892.00
2023-01-29T23:47:00.370Z,100893.00
2023-01-29T23:49:27.081Z,100877.00
2023-01-29T23:51:54.714Z,100878.00
2023-01-29T23:54:21.285Z,100889.00
2023-01-29T23:56:48.079Z,100869.00
2023-01-29T23:59:15.263Z,100858.00
